Time;durP1;ratioP1;P1;durP2;ratioP2;P2;SDS_P1;SDS_P2;PMS_P1;PMS_P2;Temp;Humidity;BMP_temperature;BMP_pressure;BME280_temperature;BME280_humidity;BME280_pressure;Samples;Min_cycle;Max_cycle;Signal;HPM_P1;HPM_P2
2022/06/20 00:00:47;;;;;;;3.90;1.60;;;;;;;14.39;94.51;100732.56;5003197;28;20069;-81
2022/06/20 00:03:38;;;;;;;3.03;1.70;;;;;;;14.36;95.07;100727.34;5004310;28;20381;-84
2022/06/20 00:06:06;;;;;;;1.88;1.67;;;;;;;14.36;94.93;100723.88;5003724;28;20045;-82
2022/06/20 00:08:33;;;;;;;4.80;1.92;;;;;;;14.38;94.92;100741.38;5004398;28;20052;-82
2022/06/20 00:10:59;;;;;;;2.80;1.48;;;;;;;14.40;94.91;100738.69;5005485;28;20050;-81
2022/06/20 00:13:35;;;;;;;2.20;2.00;;;;;;;14.41;96.48;100727.25;5002785;28;20033;-81
2022/06/20 00:16:03;;;;;;;2.63;1.55;;;;;;;14.43;96.17;100732.50;4983382;28;20046;-83
2022/06/20 00:18:32;;;;;;;2.45;1.30;;;;;;;14.42;95.38;100736.91;5006026;28;20464;-82
2022/06/20 00:21:00;;;;;;;3.33;1.40;;;;;;;14.38;95.74;100708.91;4987164;28;20042;-82
2022/06/20 00:23:26;;;;;;;1.77;1.67;;;;;;;14.34;96.61;100697.59;4998608;28;20046;-82
2022/06/20 00:25:53;;;;;;;3.53;1.50;;;;;;;14.32;95.89;100686.19;4982610;28;20132;-81
2022/06/20 00:28:19;;;;;;;3.10;1.83;;;;;;;14.35;96.88;100669.47;5003950;28;20044;-81
2022/06/20 00:30:47;;;;;;;3.75;1.52;;;;;;;14.35;96.53;100657.19;5004085;28;20059;-85
2022/06/20 00:33:13;;;;;;;7.03;1.60;;;;;;;14.30;96.89;100622.19;4985082;28;20054;-83
2022/06/20 00:35:41;;;;;;;3.65;1.80;;;;;;;14.26;96.71;100575.75;5001316;28;20354;-84
2022/06/20 00:38:16;;;;;;;2.75;1.52;;;;;;;14.20;96.76;100605.75;4988735;28;20128;-82
2022/06/20 00:40:57;;;;;;;2.08;1.67;;;;;;;14.17;97.28;100579.50;4985040;28;20054;-81
2022/06/20 00:43:37;;;;;;;2.20;1.85;;;;;;;14.15;96.21;100568.13;5005397;28;20645;-84
2022/06/20 00:46:13;;;;;;;3.85;1.90;;;;;;;14.12;97.11;100572.63;5002602;28;20045;-84
2022/06/20 00:48:48;;;;;;;2.80;1.63;;;;;;;14.09;96.31;100573.56;5013428;28;20050;-83
2022/06/20 00:51:47;;;;;;;3.63;2.10;;;;;;;14.03;96.47;100576.34;5003004;28;21435;-81
2022/06/20 00:54:43;;;;;;;9.35;3.10;;;;;;;13.99;96.31;100566.81;5003349;28;20453;-84
2022/06/20 00:57:27;;;;;;;2.55;2.35;;;;;;;14.02;97.59;100580.75;4989096;28;20056;-84
2022/06/20 00:59:59;;;;;;;;;;;;;;;14.04;98.08;100589.47;5005811;28;20076;-82
2022/06/20 01:02:32;;;;;;;2.10;1.90;;;;;;;14.08;97.15;100579.75;5005731;28;19980;-81
2022/06/20 01:05:05;;;;;;;1.88;1.60;;;;;;;14.12;96.61;100585.78;5022180;28;20049;-82
2022/06/20 01:07:42;;;;;;;5.32;1.67;;;;;;;14.11;96.69;100589.34;5005614;28;20131;-81
2022/06/20 01:10:12;;;;;;;4.00;1.75;;;;;;;14.05;96.99;100578.06;5005635;28;20061;-84
2022/06/20 01:12:52;;;;;;;4.32;1.98;;;;;;;14.02;97.92;100593.91;5007191;28;20535;-83
2022/06/20 01:15:26;;;;;;;1.75;1.38;;;;;;;14.02;98.34;100587.78;5004550;28;20065;-81
2022/06/20 01:17:54;;;;;;;2.83;1.73;;;;;;;14.00;97.99;100598.34;5020893;28;20052;-81
2022/06/20 01:20:29;;;;;;;2.97;1.80;;;;;;;13.96;98.25;100593.19;5003264;28;20037;-81
2022/06/20 01:23:34;;;;;;;4.22;2.60;;;;;;;13.94;98.82;100576.59;5019989;28;20041;-81
2022/06/20 01:26:30;;;;;;;3.50;2.58;;;;;;;13.98;99.33;100551.91;5006469;28;20847;-80
2022/06/20 01:29:02;;;;;;;5.90;1.92;;;;;;;13.99;99.07;100566.81;5010498;28;20099;-81
2022/06/20 01:31:39;;;;;;;2.70;2.05;;;;;;;14.04;98.59;100578.94;5004071;28;20050;-81
2022/06/20 01:34:06;;;;;;;2.88;2.35;;;;;;;14.06;98.34;100565.75;5020712;28;20053;-83
2022/06/20 01:39:24;;;;;;;6.00;2.63;;;;;;;14.10;97.88;100572.66;5005709;28;20060;-82
2022/06/20 01:44:44;;;;;;;4.20;2.47;;;;;;;14.12;97.52;100577.88;5009550;28;20040;-82
2022/06/20 01:47:10;;;;;;;3.22;1.60;;;;;;;14.12;97.49;100581.38;5003415;28;20041;-83
2022/06/20 01:49:39;;;;;;;2.35;1.60;;;;;;;14.14;96.74;100582.19;4991444;28;20057;-84
2022/06/20 01:52:47;;;;;;;3.83;2.58;;;;;;;14.15;97.04;100609.41;5001554;28;20386;-80
2022/06/20 01:55:21;;;;;;;4.88;1.67;;;;;;;14.12;97.42;100591.03;5005570;28;20057;-83
2022/06/20 01:57:50;;;;;;;;;;;;;;;14.10;98.96;100582.34;4982776;28;20392;-81
2022/06/20 02:00:22;;;;;;;3.72;2.10;;;;;;;14.08;98.07;100606.06;4982375;28;19925;-81
2022/06/20 02:03:09;;;;;;;4.35;3.13;;;;;;;14.03;98.55;100577.22;4997702;28;20037;-83
2022/06/20 02:05:39;;;;;;;5.45;3.05;;;;;;;14.06;99.46;100484.16;5001899;28;20100;-83
2022/06/20 02:08:08;;;;;;;4.30;3.00;;;;;;;13.95;99.35;100488.81;4999648;28;20068;-83
2022/06/20 02:10:44;;;;;;;2.38;1.90;;;;;;;13.81;99.24;100524.25;4999209;28;20204;-84
2022/06/20 02:13:13;;;;;;;3.75;2.72;;;;;;;13.70;100.00;100586.75;4998793;28;20045;-82
2022/06/20 02:15:42;;;;;;;4.60;2.78;;;;;;;13.68;100.00;100609.63;5002288;28;20465;-85
2022/06/20 02:18:09;;;;;;;4.53;2.53;;;;;;;13.65;100.00;100601.78;5020319;28;20041;-83
2022/06/20 02:20:46;;;;;;;7.30;2.97;;;;;;;13.67;100.00;100582.44;5005729;28;20484;-80
2022/06/20 02:23:27;;;;;;;2.42;1.92;;;;;;;13.73;100.00;100592.81;5002286;28;20049;-85
2022/06/20 02:25:56;;;;;;;3.47;2.63;;;;;;;13.73;100.00;100587.56;5018170;28;20038;-83
2022/06/20 02:28:39;;;;;;;2.38;1.73;;;;;;;13.76;100.00;100575.25;4989571;28;20052;-84
2022/06/20 02:31:07;;;;;;;5.38;2.33;;;;;;;13.78;100.00;100548.00;4987687;28;20067;-83
2022/06/20 02:33:34;;;;;;;2.88;2.47;;;;;;;13.80;100.00;100540.06;5000598;28;20048;-82
2022/06/20 02:36:06;;;;;;;2.58;2.10;;;;;;;13.82;100.00;100541.75;4987995;28;21388;-81
2022/06/20 02:38:34;;;;;;;3.38;2.22;;;;;;;13.83;100.00;100548.75;4990804;28;20470;-80
2022/06/20 02:41:01;;;;;;;2.17;1.90;;;;;;;13.81;100.00;100547.06;5020037;28;20045;-80
2022/06/20 02:43:38;;;;;;;3.55;2.13;;;;;;;13.78;100.00;100576.94;5003314;28;20049;-80
2022/06/20 02:46:11;;;;;;;4.38;2.28;;;;;;;13.77;100.00;100590.16;4990305;28;20041;-83
2022/06/20 02:48:40;;;;;;;4.20;1.90;;;;;;;13.72;100.00;100583.19;4989279;28;20045;-82
2022/06/20 02:51:09;;;;;;;6.63;1.67;;;;;;;13.67;100.00;100573.69;4985501;28;20312;-81
2022/06/20 02:53:56;;;;;;;5.78;2.15;;;;;;;13.68;100.00;100578.91;5021467;28;20048;-80
2022/06/20 02:56:27;;;;;;;3.30;1.80;;;;;;;13.67;100.00;100592.97;5002619;28;20042;-83
2022/06/20 02:59:07;;;;;;;2.15;1.63;;;;;;;13.64;100.00;100607.97;5002529;28;20132;-80
2022/06/20 03:01:49;;;;;;;2.65;1.73;;;;;;;13.61;99.68;100647.47;5020443;28;20119;-81
2022/06/20 03:04:17;;;;;;;4.75;1.73;;;;;;;13.56;100.00;100639.69;4987910;28;20045;-81
2022/06/20 03:06:52;;;;;;;3.63;1.67;;;;;;;13.52;100.00;100628.38;5001605;28;20049;-83
2022/06/20 03:09:32;;;;;;;3.60;1.58;;;;;;;13.50;100.00;100621.41;5017193;28;20048;-81
2022/06/20 03:12:01;;;;;;;4.35;2.05;;;;;;;13.48;100.00;100624.09;5003044;28;20045;-81
2022/06/20 03:14:36;;;;;;;12.10;2.30;;;;;;;13.48;100.00;100628.44;5002159;28;20073;-82
2022/06/20 03:17:05;;;;;;;7.22;2.15;;;;;;;13.46;100.00;100639.00;5003416;28;20069;-81
2022/06/20 03:19:34;;;;;;;6.28;1.75;;;;;;;13.46;100.00;100652.16;4989461;28;20049;-82
2022/06/20 03:22:07;;;;;;;3.63;1.98;;;;;;;13.43;100.00;100665.38;5006081;28;20045;-82
2022/06/20 03:24:36;;;;;;;10.00;2.33;;;;;;;13.43;100.00;100675.91;4983694;28;20053;-83
2022/06/20 03:27:07;;;;;;;3.70;1.83;;;;;;;13.39;100.00;100677.72;5004070;28;20411;-81
2022/06/20 03:29:39;;;;;;;2.78;1.73;;;;;;;13.38;100.00;100685.66;5006505;28;20054;-84
2022/06/20 03:32:07;;;;;;;5.97;2.20;;;;;;;13.32;100.00;100689.22;5001077;28;20037;-81
2022/06/20 03:34:33;;;;;;;4.18;1.90;;;;;;;13.33;100.00;100690.09;5005509;28;20065;-81
2022/06/20 03:37:02;;;;;;;5.82;2.17;;;;;;;13.34;100.00;100689.19;5018095;28;20077;-82
2022/06/20 03:39:30;;;;;;;4.18;2.25;;;;;;;13.35;100.00;100691.81;5003665;28;20579;-81
2022/06/20 03:41:57;;;;;;;4.35;1.60;;;;;;;13.37;100.00;100707.56;4992109;28;20041;-83
2022/06/20 03:44:29;;;;;;;3.72;2.17;;;;;;;13.33;100.00;100705.88;5009647;28;20060;-84
2022/06/20 03:47:20;;;;;;;5.32;1.90;;;;;;;13.27;100.00;100708.59;4996410;28;20049;-82
2022/06/20 03:50:00;;;;;;;2.83;1.90;;;;;;;13.25;100.00;100713.91;5011800;28;20056;-84
2022/06/20 03:52:36;;;;;;;3.97;2.78;;;;;;;13.26;100.00;100715.63;5013798;28;20054;-81
2022/06/20 03:55:13;;;;;;;3.83;2.50;;;;;;;13.21;100.00;100710.47;5015706;28;20561;-83
2022/06/20 03:57:56;;;;;;;8.45;2.53;;;;;;;13.12;100.00;100705.38;5021372;28;20052;-83
2022/06/20 04:00:59;;;;;;;4.18;2.78;;;;;;;13.11;100.00;100697.53;5019385;28;20048;-84
2022/06/20 04:03:51;;;;;;;11.67;2.97;;;;;;;13.07;100.00;100701.97;4988326;28;20048;-82
2022/06/20 04:06:27;;;;;;;6.00;2.60;;;;;;;13.03;100.00;100695.91;5023078;28;20061;-81
2022/06/20 04:12:11;;;;;;;3.33;1.95;;;;;;;13.04;100.00;100670.50;5022042;28;20691;-84
2022/06/20 04:14:55;;;;;;;4.47;2.72;;;;;;;13.09;100.00;100671.28;5006181;28;20073;-83
2022/06/20 04:21:00;;;;;;;7.03;3.33;;;;;;;13.06;100.00;100647.66;5019786;28;20041;-82
2022/06/20 04:24:13;;;;;;;2.75;1.80;;;;;;;13.03;100.00;100635.44;4997422;28;20037;-82
2022/06/20 04:26:59;;;;;;;5.57;2.58;;;;;;;13.00;100.00;100618.91;5000865;28;20128;-85
2022/06/20 04:29:35;;;;;;;4.93;2.50;;;;;;;13.01;100.00;100604.84;4999526;28;20071;-83
2022/06/20 04:32:17;;;;;;;3.67;2.33;;;;;;;12.98;100.00;100597.88;5007074;28;20140;-83
2022/06/20 04:35:01;;;;;;;5.80;2.25;;;;;;;12.96;100.00;100583.94;5007171;28;20050;-85
2022/06/20 04:37:37;;;;;;;4.10;2.35;;;;;;;12.96;100.00;100557.66;5011806;28;20075;-82
2022/06/20 04:40:16;;;;;;;4.25;2.70;;;;;;;12.99;100.00;100533.94;5007774;28;21022;-82
2022/06/20 04:42:56;;;;;;;6.88;3.65;;;;;;;13.02;100.00;100512.88;4988764;28;20748;-86
2022/06/20 04:45:32;;;;;;;7.50;2.70;;;;;;;13.05;100.00;100490.91;4999715;28;20522;-83
2022/06/20 04:48:07;;;;;;;4.15;2.28;;;;;;;13.06;100.00;100471.59;5005359;28;20069;-81
2022/06/20 04:50:36;;;;;;;7.47;2.88;;;;;;;13.05;100.00;100454.97;5004931;28;20411;-85
2022/06/20 04:53:08;;;;;;;7.75;2.95;;;;;;;13.07;100.00;100445.31;5021154;28;20700;-81
2022/06/20 04:55:40;;;;;;;9.95;3.33;;;;;;;13.11;100.00;100445.22;4990374;28;20209;-82
2022/06/20 04:58:13;;;;;;;5.57;2.80;;;;;;;13.17;100.00;100434.59;5003184;28;20061;-83
2022/06/20 05:00:44;;;;;;;6.38;2.42;;;;;;;13.19;100.00;100414.38;5023618;28;20045;-84
2022/06/20 05:03:18;;;;;;;5.28;2.60;;;;;;;13.19;100.00;100423.13;5002580;28;20156;-83
2022/06/20 05:05:51;;;;;;;4.25;2.60;;;;;;;13.19;100.00;100419.63;4988242;28;20045;-82
2022/06/20 05:08:34;;;;;;;8.35;2.50;;;;;;;13.23;100.00;100416.91;5005196;28;20033;-82
2022/06/20 05:11:11;;;;;;;15.10;4.45;;;;;;;13.24;100.00;100413.38;4985989;28;20059;-82
2022/06/20 05:13:46;;;;;;;5.72;2.35;;;;;;;13.30;100.00;100419.38;4987305;28;20489;-81
2022/06/20 05:16:19;;;;;;;4.68;1.98;;;;;;;13.38;100.00;100426.19;4983755;28;20144;-83
2022/06/20 05:18:55;;;;;;;4.35;1.80;;;;;;;13.39;100.00;100422.69;4989378;28;20486;-82
2022/06/20 05:21:34;;;;;;;6.65;2.15;;;;;;;13.40;100.00;100416.53;4983887;28;20049;-83
2022/06/20 05:24:14;;;;;;;4.00;1.73;;;;;;;13.43;100.00;100419.97;5015612;28;20063;-83
2022/06/20 05:26:46;;;;;;;6.97;2.30;;;;;;;13.44;100.00;100414.69;5006921;28;20041;-81
2022/06/20 05:29:28;;;;;;;6.30;1.52;;;;;;;13.44;98.90;100419.06;4989060;28;20052;-85
2022/06/20 05:31:57;;;;;;;6.63;3.50;;;;;;;13.49;100.00;100432.97;5008349;28;20044;-81
2022/06/20 05:34:43;;;;;;;8.80;2.85;;;;;;;13.59;99.79;100441.50;5024784;28;20053;-83
2022/06/20 05:37:24;;;;;;;7.47;2.25;;;;;;;13.67;97.95;100452.69;5025450;28;20173;-81
2022/06/20 05:40:00;;;;;;;8.07;3.45;;;;;;;13.72;97.76;100477.13;5013169;28;20174;-81
2022/06/20 05:42:27;;;;;;;3.55;2.00;;;;;;;13.72;95.77;100498.16;4990001;28;20033;-80
2022/06/20 05:44:53;;;;;;;4.95;1.92;;;;;;;13.68;96.13;100517.56;4988059;28;20077;-81
2022/06/20 05:47:30;;;;;;;6.70;2.00;;;;;;;13.64;95.01;100532.53;5008833;28;20064;-83
2022/06/20 05:50:46;;;;;;;3.67;1.75;;;;;;;13.64;95.54;100558.84;4999439;28;20157;-82
2022/06/20 05:53:24;;;;;;;5.70;2.00;;;;;;;13.62;94.81;100560.63;4996418;28;20061;-81
2022/06/20 05:55:56;;;;;;;8.00;2.03;;;;;;;13.62;95.06;100558.00;5006852;28;20037;-82
2022/06/20 05:58:29;;;;;;;7.43;2.17;;;;;;;13.58;95.38;100580.03;4981791;28;20460;-81
2022/06/20 06:01:02;;;;;;;6.35;2.97;;;;;;;13.47;97.54;100579.41;4990686;28;20061;-81
2022/06/20 06:03:38;;;;;;;8.57;3.08;;;;;;;13.28;99.74;100574.50;4984865;28;20069;-82
2022/06/20 06:06:22;;;;;;;7.15;1.95;;;;;;;13.10;100.00;100581.00;5005268;28;20037;-86
2022/06/20 06:08:58;;;;;;;5.45;2.25;;;;;;;12.98;100.00;100597.88;4988608;28;20096;-84
2022/06/20 06:11:51;;;;;;;3.92;1.80;;;;;;;12.87;100.00;100599.88;5002332;28;20099;-83
2022/06/20 06:14:32;;;;;;;5.50;1.38;;;;;;;12.81;100.00;100607.88;5001611;28;20045;-84
2022/06/20 06:17:22;;;;;;;5.13;1.70;;;;;;;12.80;100.00;100606.13;4987727;28;20488;-82
2022/06/20 06:19:57;;;;;;;5.88;1.77;;;;;;;12.83;100.00;100613.97;5020902;28;20044;-82
2022/06/20 06:22:31;;;;;;;7.40;1.85;;;;;;;12.84;100.00;100634.97;5006155;28;20952;-83
2022/06/20 06:25:01;;;;;;;;;;;;;;;12.90;100.00;100652.34;5013980;28;20075;-80
2022/06/20 06:27:35;;;;;;;6.80;2.15;;;;;;;12.89;100.00;100663.75;5007089;28;20042;-82
2022/06/20 06:30:07;;;;;;;8.75;3.08;;;;;;;12.86;100.00;100683.06;4992306;28;20041;-84
2022/06/20 06:32:44;;;;;;;6.18;2.70;;;;;;;12.88;100.00;100693.53;5009406;28;20053;-82
2022/06/20 06:35:27;;;;;;;8.73;2.85;;;;;;;12.86;100.00;100706.72;4995008;28;20107;-84
2022/06/20 06:38:02;;;;;;;6.87;1.80;;;;;;;12.83;100.00;100719.06;5013308;28;20125;-81
2022/06/20 06:40:39;;;;;;;10.32;1.80;;;;;;;12.81;100.00;100719.06;5009439;28;20057;-82
2022/06/20 06:43:28;;;;;;;5.60;2.17;;;;;;;12.89;100.00;100711.94;5006282;28;20041;-82
2022/06/20 06:46:00;;;;;;;6.90;1.75;;;;;;;12.96;99.80;100711.78;5024816;28;20041;-83
2022/06/20 06:49:04;;;;;;;7.47;1.98;;;;;;;12.92;100.00;100708.38;5020629;28;20079;-81
2022/06/20 06:52:01;;;;;;;8.67;2.33;;;;;;;12.90;100.00;100708.38;5021652;28;20157;-85
2022/06/20 06:54:43;;;;;;;5.85;1.88;;;;;;;13.00;99.71;100698.59;5008394;28;20364;-82
2022/06/20 06:57:21;;;;;;;5.85;1.92;;;;;;;13.11;99.45;100695.75;5008711;28;20040;-83
2022/06/20 07:00:06;;;;;;;5.10;2.08;;;;;;;13.33;99.34;100688.31;4997169;28;20061;-80
2022/06/20 07:02:43;;;;;;;15.73;3.28;;;;;;;13.51;97.79;100678.38;5015953;28;20489;-83
2022/06/20 07:05:29;;;;;;;4.53;2.35;;;;;;;13.72;96.79;100677.03;5021181;28;20042;-86
2022/06/20 07:08:20;;;;;;;5.43;1.83;;;;;;;13.91;93.40;100669.63;4989368;28;20112;-81
2022/06/20 07:11:28;;;;;;;7.20;1.98;;;;;;;14.00;91.83;100664.16;4989561;28;20050;-84
2022/06/20 07:14:12;;;;;;;7.50;2.17;;;;;;;14.07;92.29;100665.72;5001294;28;20057;-81
2022/06/20 07:16:54;;;;;;;7.78;2.20;;;;;;;14.32;92.32;100653.75;5008073;28;20034;-83
2022/06/20 07:19:24;;;;;;;3.55;1.20;;;;;;;14.51;90.46;100652.38;5005944;28;20662;-82
2022/06/20 07:21:51;;;;;;;7.43;2.15;;;;;;;14.68;88.78;100652.00;4994987;28;20076;-81
2022/06/20 07:24:30;;;;;;;5.70;1.30;;;;;;;14.84;86.59;100639.25;4989992;28;20147;-83
2022/06/20 07:27:02;;;;;;;4.30;1.50;;;;;;;15.02;87.32;100637.03;5014073;28;20042;-83
2022/06/20 07:29:39;;;;;;;9.27;1.90;;;;;;;15.21;86.54;100630.34;5012033;28;20582;-83
2022/06/20 07:32:14;;;;;;;3.00;1.38;;;;;;;15.39;83.96;100617.53;5010060;28;20113;-86
2022/06/20 07:34:50;;;;;;;6.50;2.20;;;;;;;15.38;82.97;100614.03;4998932;28;20043;-82
2022/06/20 07:37:22;;;;;;;6.18;1.90;;;;;;;15.45;83.71;100609.44;5013430;28;20045;-83
2022/06/20 07:40:07;;;;;;;5.70;1.63;;;;;;;15.62;82.72;100611.56;5010028;28;20045;-84
2022/06/20 07:42:41;;;;;;;5.82;2.30;;;;;;;15.78;80.56;100611.94;5009082;28;20125;-82
2022/06/20 07:45:09;;;;;;;;;;;;;;;15.93;76.91;100620.31;5003018;28;20085;-81
2022/06/20 07:47:59;;;;;;;5.82;2.35;;;;;;;15.98;76.15;100614.00;4990268;28;20374;-83
2022/06/20 07:50:39;;;;;;;10.85;2.22;;;;;;;16.05;77.33;100612.03;4989616;28;20049;-82
2022/06/20 07:53:12;;;;;;;6.10;2.28;;;;;;;16.17;76.19;100611.59;5003466;28;20100;-81
2022/06/20 07:55:49;;;;;;;5.70;1.95;;;;;;;16.32;74.77;100610.25;4994440;28;20073;-82
2022/06/20 07:58:23;;;;;;;4.55;2.13;;;;;;;16.37;75.47;100605.69;5006584;28;20767;-83
2022/06/20 08:00:55;;;;;;;7.90;2.00;;;;;;;16.40;74.83;100615.28;5009168;28;20088;-81
2022/06/20 08:03:42;;;;;;;8.65;2.97;;;;;;;16.31;74.47;100623.47;5023698;28;20056;-82
2022/06/20 08:06:36;;;;;;;6.88;2.28;;;;;;;16.31;75.63;100631.41;5006796;28;20524;-84
2022/06/20 08:09:27;;;;;;;6.03;2.60;;;;;;;16.44;74.19;100623.94;5008227;28;20045;-82
2022/06/20 08:12:16;;;;;;;4.85;2.30;;;;;;;16.75;73.48;100630.81;5005228;28;20053;-82
2022/06/20 08:14:53;;;;;;;6.68;2.22;;;;;;;16.91;73.15;100631.16;5005479;28;20684;-81
2022/06/20 08:17:20;;;;;;;5.78;2.20;;;;;;;16.85;72.57;100621.66;5006101;28;20073;-81
2022/06/20 08:19:47;;;;;;;11.43;2.47;;;;;;;16.74;72.17;100627.31;5001154;28;20038;-81
2022/06/20 08:22:22;;;;;;;7.32;2.92;;;;;;;16.57;71.40;100629.66;5005214;28;20056;-81
2022/06/20 08:25:14;;;;;;;3.13;1.60;;;;;;;16.40;71.75;100633.75;5004641;28;20237;-82
2022/06/20 08:28:05;;;;;;;7.57;2.03;;;;;;;16.31;72.69;100632.28;5004576;28;20135;-85
2022/06/20 08:30:48;;;;;;;9.20;2.60;;;;;;;16.48;70.76;100639.66;5007085;28;20048;-83
2022/06/20 08:34:06;;;;;;;9.48;3.58;;;;;;;16.35;71.10;100633.06;5001468;28;20053;-83
2022/06/20 08:36:55;;;;;;;8.82;2.80;;;;;;;16.40;71.58;100644.34;4992957;28;20065;-82
2022/06/20 08:39:42;;;;;;;5.00;1.88;;;;;;;16.56;71.23;100644.69;5002255;28;20480;-82
2022/06/20 08:42:42;;;;;;;5.35;2.05;;;;;;;16.74;69.22;100647.59;5003319;28;20104;-82
2022/06/20 08:45:34;;;;;;;5.15;1.70;;;;;;;16.83;69.20;100649.91;5005540;28;20061;-83
2022/06/20 08:48:44;;;;;;;5.68;1.30;;;;;;;16.77;66.99;100652.78;5004503;28;20054;-81
2022/06/20 08:52:06;;;;;;;3.85;1.50;;;;;;;16.80;67.09;100652.66;5005695;28;20056;-82
2022/06/20 08:55:05;;;;;;;9.85;2.65;;;;;;;17.11;65.99;100651.63;5010942;28;20042;-82
2022/06/20 08:58:17;;;;;;;7.03;2.03;;;;;;;17.28;64.77;100654.50;5008947;28;20045;-83
2022/06/20 09:01:02;;;;;;;7.35;1.80;;;;;;;17.41;64.41;100656.69;5006456;28;20124;-82
2022/06/20 09:03:55;;;;;;;5.38;1.80;;;;;;;17.49;65.05;100666.06;5022443;28;20121;-81
2022/06/20 09:07:03;;;;;;;7.00;2.30;;;;;;;17.70;63.70;100663.53;5009560;28;20049;-86
2022/06/20 09:10:21;;;;;;;7.68;2.17;;;;;;;18.11;62.18;100661.06;5028430;28;20056;-83
2022/06/20 09:13:12;;;;;;;2.92;1.25;;;;;;;18.44;60.84;100641.19;5014373;28;20041;-82
2022/06/20 09:15:57;;;;;;;6.65;1.92;;;;;;;18.43;59.55;100639.47;5008648;28;20037;-80
2022/06/20 09:18:40;;;;;;;4.25;1.45;;;;;;;18.19;59.41;100648.34;5022949;28;21350;-81
2022/06/20 09:21:21;;;;;;;2.90;1.45;;;;;;;18.06;60.65;100646.28;5010773;28;20052;-83
2022/06/20 09:24:03;;;;;;;4.38;2.33;;;;;;;17.88;60.69;100637.25;5013454;28;20064;-82
2022/06/20 09:26:50;;;;;;;9.73;2.30;;;;;;;17.82;61.27;100648.94;5027165;28;20112;-82
2022/06/20 09:30:05;;;;;;;4.90;1.10;;;;;;;17.84;60.95;100655.03;5011550;28;20053;-82
2022/06/20 09:33:11;;;;;;;5.38;1.08;;;;;;;17.66;61.32;100648.69;4993802;28;20838;-83
2022/06/20 09:36:07;;;;;;;3.78;1.33;;;;;;;17.10;62.51;100663.09;5018338;28;20077;-83
2022/06/20 09:39:03;;;;;;;5.35;1.27;;;;;;;16.79;64.11;100662.38;4996371;28;20056;-82
2022/06/20 09:41:48;;;;;;;6.82;2.20;;;;;;;16.58;65.62;100658.69;5000221;28;20042;-82
2022/06/20 09:44:29;;;;;;;6.57;1.50;;;;;;;16.47;66.37;100653.75;5014505;28;20133;-81
2022/06/20 09:47:35;;;;;;;5.18;1.52;;;;;;;16.43;67.38;100656.59;4994110;28;20049;-80
2022/06/20 09:50:25;;;;;;;4.95;1.70;;;;;;;16.42;67.84;100663.63;5020433;28;20050;-84
2022/06/20 09:53:31;;;;;;;7.00;1.60;;;;;;;16.52;67.92;100658.91;5007456;28;20072;-80
2022/06/20 09:56:23;;;;;;;5.10;1.85;;;;;;;16.89;67.14;100664.72;5023273;28;20061;-84
2022/06/20 09:59:03;;;;;;;3.88;1.20;;;;;;;18.17;63.03;100654.66;5023774;28;20042;-81
2022/06/20 10:01:46;;;;;;;2.13;0.90;;;;;;;19.30;58.44;100649.88;5021214;28;20049;-80
2022/06/20 10:04:42;;;;;;;8.57;1.23;;;;;;;20.78;53.55;100639.22;4985873;28;20049;-81
2022/06/20 10:07:38;;;;;;;5.93;1.60;;;;;;;22.05;50.12;100643.06;4991352;28;20472;-84
2022/06/20 10:10:21;;;;;;;6.97;1.80;;;;;;;21.99;48.21;100636.25;4985570;28;20185;-84
2022/06/20 10:13:00;;;;;;;6.55;1.42;;;;;;;22.19;47.94;100651.13;5001488;28;20049;-82
2022/06/20 10:15:49;;;;;;;1.88;0.82;;;;;;;22.94;46.02;100645.84;5006122;28;20045;-85
2022/06/20 10:18:45;;;;;;;8.45;1.10;;;;;;;22.89;45.63;100645.25;5004764;28;20132;-82
2022/06/20 10:21:58;;;;;;;4.13;1.13;;;;;;;23.11;45.05;100647.47;5006108;28;20114;-83
2022/06/20 10:25:15;;;;;;;4.05;0.85;;;;;;;24.07;42.17;100641.44;5002667;28;20127;-82
2022/06/20 10:28:15;;;;;;;4.18;1.00;;;;;;;25.92;38.95;100643.81;4991546;28;20042;-82
2022/06/20 10:31:20;;;;;;;2.63;0.73;;;;;;;25.89;35.68;100653.91;5023780;28;20049;-82
2022/06/20 10:34:32;;;;;;;1.90;0.60;;;;;;;26.02;36.63;100649.38;5007415;28;20782;-84
2022/06/20 10:37:33;;;;;;;1.38;0.60;;;;;;;27.80;32.06;100643.72;5004839;28;20451;-82
2022/06/20 10:40:27;;;;;;;3.67;0.65;;;;;;;29.10;31.13;100632.84;5008590;28;20048;-84
2022/06/20 10:43:12;;;;;;;1.85;0.70;;;;;;;28.46;29.63;100647.28;5005900;28;20084;-81
2022/06/20 10:46:11;;;;;;;1.42;0.55;;;;;;;28.37;30.45;100643.56;5004110;28;20044;-82
2022/06/20 10:49:15;;;;;;;1.55;0.68;;;;;;;27.27;31.25;100649.72;5026218;28;20048;-83
2022/06/20 10:52:02;;;;;;;2.45;0.52;;;;;;;25.93;33.28;100660.78;5005360;28;20389;-84
2022/06/20 10:55:10;;;;;;;2.40;0.70;;;;;;;25.18;34.24;100672.38;5006786;28;20029;-83
2022/06/20 10:58:09;;;;;;;5.38;0.68;;;;;;;23.58;37.01;100674.84;4977959;28;20128;-82
2022/06/20 11:00:43;;;;;;;2.05;0.80;;;;;;;22.40;39.27;100689.03;5009186;28;20041;-83
2022/06/20 11:03:20;;;;;;;4.35;0.70;;;;;;;21.56;40.87;100679.50;5026713;28;20056;-84
2022/06/20 11:06:48;;;;;;;3.15;0.63;;;;;;;21.09;40.61;100689.06;5010837;28;20455;-82
2022/06/20 11:09:45;;;;;;;1.15;0.47;;;;;;;21.88;40.22;100681.31;4995799;28;20056;-81
2022/06/20 11:12:46;;;;;;;1.50;1.13;;;;;;;23.93;35.91;100676.22;5013042;28;20049;-85
2022/06/20 11:15:34;;;;;;;1.42;0.60;;;;;;;26.28;32.03;100675.25;5030002;28;20049;-84
2022/06/20 11:18:20;;;;;;;1.92;0.60;;;;;;;28.36;28.92;100675.00;5014072;28;20097;-85
2022/06/20 11:21:21;;;;;;;2.58;0.57;;;;;;;30.28;26.44;100655.56;5038162;28;20059;-85
2022/06/20 11:24:38;;;;;;;2.35;0.73;;;;;;;31.18;23.17;100648.06;5018514;28;20115;-85
2022/06/20 11:27:32;;;;;;;2.58;0.50;;;;;;;30.00;25.41;100655.41;5034900;28;20049;-85
2022/06/20 11:30:19;;;;;;;1.25;0.80;;;;;;;27.89;27.64;100651.03;5036367;28;20473;-83
2022/06/20 11:33:03;;;;;;;3.00;0.73;;;;;;;27.10;29.31;100658.28;5026318;28;20072;-84
2022/06/20 11:35:55;;;;;;;3.47;1.23;;;;;;;25.53;31.85;100677.09;5042913;28;20037;-85
2022/06/20 11:38:58;;;;;;;1.92;0.63;;;;;;;23.79;34.00;100661.94;5026290;28;20037;-84
2022/06/20 11:41:37;;;;;;;;;;;;;;;24.66;32.18;100642.88;5013185;28;20049;-87
2022/06/20 11:45:06;;;;;;;2.22;0.60;;;;;;;26.54;29.58;100649.97;5025816;28;19927;-88
2022/06/20 11:47:53;;;;;;;3.22;1.10;;;;;;;25.43;30.11;100645.59;5014080;28;20057;-82
2022/06/20 11:50:47;;;;;;;1.70;0.60;;;;;;;24.16;32.09;100644.44;5008763;28;20099;-83
2022/06/20 11:53:55;;;;;;;7.25;0.93;;;;;;;24.21;32.60;100642.31;5009538;28;20591;-81
2022/06/20 11:56:59;;;;;;;1.92;0.90;;;;;;;24.98;31.42;100638.94;5030764;28;20045;-84
2022/06/20 11:59:35;;;;;;;;;;;;;;;24.45;31.68;100640.66;5029228;28;20049;-86
2022/06/20 12:02:22;;;;;;;2.00;1.25;;;;;;;25.92;29.16;100637.63;5020358;28;20371;-86
2022/06/20 12:04:58;;;;;;;1.58;1.25;;;;;;;26.40;29.74;100631.41;5003977;28;20067;-84
2022/06/20 12:07:56;;;;;;;1.73;0.90;;;;;;;25.85;29.13;100644.38;5034867;28;20068;-82
2022/06/20 12:10:38;;;;;;;3.88;0.90;;;;;;;23.82;31.86;100651.97;5014754;28;20065;-85
2022/06/20 12:13:37;;;;;;;3.85;1.17;;;;;;;22.76;33.87;100653.13;5014015;28;20041;-81
2022/06/20 12:16:36;;;;;;;2.78;1.20;;;;;;;23.11;33.47;100658.13;5034209;28;20424;-86
2022/06/20 12:25:45;;;;;;;4.40;0.80;;;;;;;23.01;34.21;100656.09;5026874;28;20060;-84
2022/06/20 12:28:22;;;;;;;2.30;1.10;;;;;;;22.33;35.43;100662.78;5015067;28;20097;-85
2022/06/20 12:31:09;;;;;;;4.72;0.77;;;;;;;22.28;35.69;100671.91;5030839;28;20029;-85
2022/06/20 12:33:40;;;;;;;5.30;1.13;;;;;;;24.19;32.78;100662.97;5041286;28;20041;-82
2022/06/20 12:36:20;;;;;;;5.93;1.45;;;;;;;25.84;30.53;100659.63;5033902;28;20033;-85
2022/06/20 12:38:57;;;;;;;2.65;1.02;;;;;;;27.11;28.52;100651.94;5030493;28;20045;-83
2022/06/20 12:41:28;;;;;;;1.92;1.00;;;;;;;28.81;26.96;100647.00;5012475;28;20260;-84
2022/06/20 12:44:14;;;;;;;1.45;1.30;;;;;;;29.99;24.39;100651.00;5026161;28;20084;-86
2022/06/20 12:47:26;;;;;;;2.67;1.52;;;;;;;30.07;24.40;100653.00;5001209;28;20037;-84
2022/06/20 12:50:20;;;;;;;2.80;1.33;;;;;;;29.74;24.37;100654.19;5014969;28;20049;-85
2022/06/20 12:53:08;;;;;;;4.28;1.50;;;;;;;30.57;23.81;100651.19;5013360;28;20503;-83